Startpagina
METAR-TAF:

METAR-TAF

Vliegvelden :

Internationale luchthaven Koning Abdoel Aziz

Djedda, Saoedi-Arabië

breedte: 21-42N, lengte: 039-11E, hoogte: 15 m

Actueel weer

Dit bericht is 21 minuten geleden gemaakt, om 21:00 UTC
Weinig wind
Temperatuur 34°C
Vochtigheid 47%
Druk 1002 hPa
Zicht 10 km of meer
geen wolken onder 1500 m en geen cumulonimbus

METAR: OEJN 212100Z 00000KT CAVOK 34/21 Q1002 NOSIG

Tijdstip: 00:21 (21:21 UTC)

Verwachting

Dit bericht is 4 uur en het 21 minuten geleden gemaakt, om 17:00 UTC
Verwachting geldig van 21 om 18 UTC tot 22 om 24 UTC
Wind 6 kt uit het noordnoordoosten
Zicht 10 km of meer
Weinig wolken op 4000 ft
Wijzigt naar
van 22 om 06 UTC tot 22 om 08 UTC
Wind 12 kt uit het westen

TAF: OEJN 211700Z 2118/2224 02006KT 9999 FEW040 BECMG 2206/2208 27012KT

Waarnemingen en weersverwachtingen van meer dan 4000 vliegvelden (METAR en TAF).

De beschikbare stations zijn de gele en rode punten op de kaart.

Ga met uw muis naar het station om de naam te zien.

Klik dan om waarnemingen en weersverwachtingen te zien.

kaart wijzigen: klik op de groene knoppen met een zwart kruis om in te zoomen, op de groene knop met een streepje om uit te zoomen of op de groene pijlen voor aangrenzende kaarten.


METAR-TAF: